createdAt,value
2024-05-09T00:00:18.679Z,68.81
2024-05-09T00:03:23.774Z,68.82
2024-05-09T00:06:01.255Z,68.69
2024-05-09T00:08:38.764Z,68.94
2024-05-09T00:11:16.432Z,68.92
2024-05-09T00:13:53.860Z,68.81
2024-05-09T00:16:31.161Z,68.87
2024-05-09T00:19:10.129Z,68.76
2024-05-09T00:21:49.068Z,68.96
2024-05-09T00:24:23.732Z,68.98
2024-05-09T00:27:01.028Z,68.94
2024-05-09T00:29:38.277Z,69.24
2024-05-09T00:32:15.577Z,69.16
2024-05-09T00:34:53.031Z,69.34
2024-05-09T00:37:30.324Z,69.43
2024-05-09T00:40:15.053Z,69.33
2024-05-09T00:42:59.620Z,69.37
2024-05-09T00:45:37.274Z,69.53
2024-05-09T00:48:19.763Z,69.38
2024-05-09T00:50:58.855Z,69.28
2024-05-09T00:53:36.631Z,69.13
2024-05-09T00:56:15.773Z,69.11
2024-05-09T00:58:54.056Z,69.34
2024-05-09T01:01:32.076Z,69.18
2024-05-09T01:04:11.427Z,69.57
2024-05-09T01:06:50.187Z,69.80
2024-05-09T01:09:27.402Z,69.86
2024-05-09T01:12:04.653Z,70.05
2024-05-09T01:14:44.075Z,70.31
2024-05-09T01:17:21.751Z,70.37
2024-05-09T01:19:58.984Z,70.38
2024-05-09T01:22:37.149Z,70.63
2024-05-09T01:25:15.856Z,70.70
2024-05-09T01:27:53.060Z,70.72
2024-05-09T01:30:34.891Z,70.55
2024-05-09T01:33:15.237Z,70.58
2024-05-09T01:35:52.552Z,70.67
2024-05-09T01:38:29.755Z,70.76
2024-05-09T01:41:07.706Z,70.78
2024-05-09T01:43:45.106Z,70.91
2024-05-09T01:46:22.297Z,70.94
2024-05-09T01:48:59.840Z,70.89
2024-05-09T01:51:37.985Z,70.95
2024-05-09T01:54:15.135Z,71.11
2024-05-09T01:56:52.318Z,71.29
2024-05-09T01:59:29.568Z,71.23
2024-05-09T02:02:07.387Z,71.19
2024-05-09T02:04:48.181Z,71.13
2024-05-09T02:07:25.570Z,71.20
2024-05-09T02:10:06.491Z,71.34
2024-05-09T02:12:45.520Z,71.39
2024-05-09T02:15:23.032Z,71.58
2024-05-09T02:18:00.389Z,71.78
2024-05-09T02:20:38.093Z,71.78
2024-05-09T02:23:16.284Z,71.78
2024-05-09T02:25:53.768Z,71.75
2024-05-09T02:28:31.175Z,71.78
2024-05-09T02:31:08.440Z,71.76
2024-05-09T02:33:46.047Z,71.90
2024-05-09T02:36:23.293Z,71.99
2024-05-09T02:39:02.516Z,72.07
2024-05-09T02:41:39.929Z,72.10
2024-05-09T02:44:17.217Z,71.93
2024-05-09T02:46:54.658Z,72.06
2024-05-09T02:49:32.224Z,71.90
2024-05-09T02:52:10.299Z,72.01
2024-05-09T02:54:47.443Z,72.10
2024-05-09T02:57:24.616Z,72.25
2024-05-09T03:00:01.805Z,72.28
2024-05-09T03:02:39.296Z,72.23
2024-05-09T03:05:16.707Z,72.38
2024-05-09T03:07:53.934Z,72.50
2024-05-09T03:10:35.990Z,72.46
2024-05-09T03:13:16.774Z,72.61
2024-05-09T03:15:54.018Z,72.71
2024-05-09T03:18:31.166Z,72.66
2024-05-09T03:21:08.740Z,72.65
2024-05-09T03:23:47.276Z,72.84
2024-05-09T03:26:24.504Z,72.76
2024-05-09T03:29:02.962Z,72.65
2024-05-09T03:31:41.194Z,72.85
2024-05-09T03:34:18.419Z,72.79
2024-05-09T03:36:55.678Z,72.87
2024-05-09T03:39:32.915Z,72.87
2024-05-09T03:42:10.767Z,72.90
2024-05-09T03:44:48.009Z,72.77
2024-05-09T03:47:25.376Z,72.81
2024-05-09T03:50:04.412Z,72.82
2024-05-09T03:52:42.673Z,72.93
2024-05-09T03:55:20.015Z,72.89
2024-05-09T03:57:57.222Z,72.88
2024-05-09T04:00:38.231Z,73.02
2024-05-09T04:03:17.227Z,73.11
2024-05-09T04:05:54.616Z,73.23
2024-05-09T04:08:31.885Z,73.23
2024-05-09T04:11:09.693Z,73.26
2024-05-09T04:13:47.093Z,73.16
2024-05-09T04:16:24.262Z,73.22
2024-05-09T04:19:03.259Z,73.00
2024-05-09T04:21:41.027Z,73.10
2024-05-09T04:24:18.239Z,73.12
2024-05-09T04:26:55.513Z,73.23
2024-05-09T04:29:32.890Z,73.17
2024-05-09T04:32:11.038Z,73.32
2024-05-09T04:34:48.320Z,73.22
2024-05-09T04:37:25.579Z,73.39
2024-05-09T04:40:03.106Z,73.32
2024-05-09T04:42:42.548Z,73.31
2024-05-09T04:45:19.827Z,73.36
2024-05-09T04:47:57.259Z,73.30
2024-05-09T04:50:38.260Z,73.37
2024-05-09T04:53:20.527Z,73.32
2024-05-09T04:55:58.059Z,73.37
2024-05-09T04:58:35.321Z,73.50
2024-05-09T05:01:12.812Z,73.48
2024-05-09T05:03:50.197Z,73.46
2024-05-09T05:06:27.643Z,73.53
2024-05-09T05:09:06.223Z,73.60
2024-05-09T05:11:43.670Z,73.50
2024-05-09T05:14:21.096Z,73.61
2024-05-09T05:16:58.436Z,73.54
2024-05-09T05:19:35.870Z,73.55
2024-05-09T05:22:13.274Z,73.50
2024-05-09T05:24:50.482Z,73.55
2024-05-09T05:27:27.711Z,73.48
2024-05-09T05:30:09.418Z,73.47
2024-05-09T05:32:47.004Z,73.29
2024-05-09T05:35:24.563Z,73.17
2024-05-09T05:38:02.176Z,73.20
2024-05-09T05:40:40.989Z,73.09
2024-05-09T05:43:21.965Z,72.99
2024-05-09T05:45:59.162Z,72.85
2024-05-09T05:48:36.490Z,72.77
2024-05-09T05:51:14.017Z,72.72
2024-05-09T05:53:51.288Z,72.55
2024-05-09T05:56:28.757Z,72.33
2024-05-09T05:59:06.840Z,72.18
2024-05-09T06:01:44.308Z,71.75
2024-05-09T06:04:22.473Z,71.36
2024-05-09T06:07:00.727Z,71.14
2024-05-09T06:09:39.345Z,71.12
2024-05-09T06:12:17.728Z,70.79
2024-05-09T06:14:55.509Z,70.76
2024-05-09T06:17:33.194Z,70.17
2024-05-09T06:20:20.251Z,70.21
2024-05-09T06:23:02.565Z,70.22
2024-05-09T06:25:40.589Z,70.16
2024-05-09T06:28:18.026Z,69.82
2024-05-09T06:30:55.520Z,69.52
2024-05-09T06:33:33.394Z,69.40
2024-05-09T06:36:12.098Z,69.58
2024-05-09T06:38:49.631Z,69.10
2024-05-09T06:41:27.418Z,68.71
2024-05-09T06:44:07.317Z,68.60
2024-05-09T06:46:45.561Z,68.00
2024-05-09T06:49:23.466Z,67.86
2024-05-09T06:52:01.126Z,67.73
2024-05-09T06:54:38.818Z,67.21
2024-05-09T06:57:16.519Z,67.29
2024-05-09T06:59:54.060Z,67.40
2024-05-09T07:02:32.303Z,67.58
2024-05-09T07:05:11.279Z,66.90
2024-05-09T07:07:46.220Z,66.50
2024-05-09T07:10:29.043Z,66.47
2024-05-09T07:13:15.050Z,66.26
2024-05-09T07:15:53.201Z,66.04
2024-05-09T07:18:31.804Z,66.68
2024-05-09T07:21:10.024Z,65.80
2024-05-09T07:23:47.913Z,64.83
2024-05-09T07:26:25.674Z,64.54
2024-05-09T07:29:04.367Z,64.46
2024-05-09T07:31:41.909Z,64.72
2024-05-09T07:34:19.729Z,64.97
2024-05-09T07:36:57.415Z,64.58
2024-05-09T07:39:34.884Z,64.57
2024-05-09T07:42:12.779Z,64.71
2024-05-09T07:44:50.384Z,64.87
2024-05-09T07:53:35.278Z,63.69
2024-05-09T07:55:47.718Z,63.68
2024-05-09T07:58:27.855Z,64.34
2024-05-09T08:01:05.867Z,64.59
2024-05-09T08:03:43.891Z,64.84
2024-05-09T08:06:21.448Z,63.53
2024-05-09T08:09:02.814Z,63.47
2024-05-09T08:11:43.436Z,64.19
2024-05-09T08:14:20.933Z,63.85
2024-05-09T08:16:58.446Z,63.69
2024-05-09T08:19:37.843Z,64.04
2024-05-09T08:22:15.538Z,63.92
2024-05-09T08:24:53.199Z,63.55
2024-05-09T08:27:31.071Z,63.69
2024-05-09T08:30:15.466Z,64.03
2024-05-09T08:32:59.157Z,62.51
2024-05-09T08:35:37.026Z,63.13
2024-05-09T08:38:14.612Z,63.64
2024-05-09T08:40:52.526Z,63.62
2024-05-09T08:43:32.381Z,63.15
2024-05-09T08:46:11.372Z,62.70
2024-05-09T08:48:50.795Z,62.29
2024-05-09T08:51:29.229Z,61.80
2024-05-09T08:54:07.472Z,61.70
2024-05-09T08:56:48.425Z,61.44
2024-05-09T08:59:30.584Z,61.47
2024-05-09T09:02:09.084Z,60.63
2024-05-09T09:04:53.716Z,60.78
2024-05-09T09:07:32.521Z,60.24
2024-05-09T09:10:12.871Z,59.66
2024-05-09T09:13:00.851Z,58.66
2024-05-09T09:15:48.683Z,59.17
2024-05-09T09:18:27.634Z,59.43
2024-05-09T09:21:05.552Z,59.95
2024-05-09T09:23:44.400Z,60.64
2024-05-09T09:26:25.393Z,57.42
2024-05-09T09:29:07.547Z,54.73
2024-05-09T09:31:45.075Z,54.97
2024-05-09T09:34:22.810Z,55.63
2024-05-09T09:37:06.673Z,54.56
2024-05-09T09:39:49.053Z,55.15
2024-05-09T09:42:30.105Z,55.68
2024-05-09T09:45:09.452Z,52.97
2024-05-09T09:47:49.322Z,52.40
2024-05-09T09:50:33.877Z,51.64
2024-05-09T09:53:13.107Z,50.45
2024-05-09T09:55:51.484Z,50.89
2024-05-09T09:58:29.964Z,50.91
2024-05-09T10:01:04.780Z,52.44
2024-05-09T10:03:42.518Z,52.01
2024-05-09T10:06:21.581Z,50.47
2024-05-09T10:09:00.007Z,50.17
2024-05-09T10:11:42.034Z,50.66
2024-05-09T10:14:31.004Z,49.65
2024-05-09T10:17:11.890Z,49.37
2024-05-09T10:19:49.197Z,49.93
2024-05-09T10:22:34.064Z,49.52
2024-05-09T10:25:12.645Z,49.02
2024-05-09T10:27:57.074Z,50.62
2024-05-09T10:30:36.300Z,51.31
2024-05-09T10:33:17.028Z,49.27
2024-05-09T10:36:05.285Z,49.21
2024-05-09T10:38:42.806Z,49.62
2024-05-09T10:41:22.056Z,49.86
2024-05-09T10:43:59.301Z,49.36
2024-05-09T10:46:36.590Z,50.53
2024-05-09T10:49:16.427Z,50.30
2024-05-09T10:51:55.023Z,48.51
2024-05-09T10:54:41.073Z,49.14
2024-05-09T10:57:19.834Z,50.10
2024-05-09T10:59:57.067Z,51.08
2024-05-09T11:02:34.545Z,49.47
2024-05-09T11:05:12.449Z,49.21
2024-05-09T11:07:49.760Z,49.89
2024-05-09T11:10:33.749Z,48.66
2024-05-09T11:13:12.041Z,48.56
2024-05-09T11:15:49.542Z,47.46
2024-05-09T11:18:31.918Z,48.22
2024-05-09T11:21:17.277Z,46.35
2024-05-09T11:23:54.868Z,45.77
2024-05-09T11:26:34.090Z,45.96
2024-05-09T11:29:15.737Z,46.12
2024-05-09T11:31:54.685Z,46.78
2024-05-09T11:34:32.106Z,46.71
2024-05-09T11:37:10.345Z,45.92
2024-05-09T11:39:47.771Z,48.33
2024-05-09T11:42:26.108Z,49.40
2024-05-09T11:45:03.293Z,47.13
2024-05-09T11:47:41.153Z,48.01
2024-05-09T11:50:26.901Z,49.91
2024-05-09T11:53:07.922Z,50.46
2024-05-09T11:55:45.186Z,48.59
2024-05-09T11:58:23.645Z,47.60
2024-05-09T12:01:02.004Z,46.88
2024-05-09T12:03:40.776Z,46.81
2024-05-09T12:06:18.532Z,45.29
2024-05-09T12:08:56.206Z,47.05
2024-05-09T12:11:33.627Z,44.50
2024-05-09T12:14:11.024Z,43.93
2024-05-09T12:16:48.537Z,44.24
2024-05-09T12:19:25.950Z,44.23
2024-05-09T12:22:03.398Z,45.19
2024-05-09T12:24:40.876Z,42.80
2024-05-09T12:27:18.624Z,43.95
2024-05-09T12:29:55.944Z,44.29
2024-05-09T12:32:33.252Z,43.48
2024-05-09T12:35:10.854Z,42.50
2024-05-09T12:37:48.121Z,42.86
2024-05-09T12:40:34.316Z,44.34
2024-05-09T12:43:14.855Z,43.73
2024-05-09T12:45:52.523Z,43.23
2024-05-09T12:48:30.045Z,43.20
2024-05-09T12:51:07.995Z,44.38
2024-05-09T12:53:45.239Z,42.34
2024-05-09T12:56:22.571Z,43.13
2024-05-09T12:59:00.186Z,43.23
2024-05-09T13:01:37.611Z,43.73
2024-05-09T13:04:15.004Z,41.72
2024-05-09T13:06:52.466Z,43.14
2024-05-09T13:09:29.867Z,43.99
2024-05-09T13:12:07.707Z,43.27
2024-05-09T13:14:44.922Z,45.21
2024-05-09T13:17:22.322Z,44.25
2024-05-09T13:19:59.655Z,43.76
2024-05-09T13:22:38.468Z,42.16
2024-05-09T13:25:16.552Z,42.50
2024-05-09T13:27:54.270Z,41.73
2024-05-09T13:30:39.245Z,41.72
2024-05-09T13:33:19.208Z,41.37
2024-05-09T13:35:56.801Z,40.99
2024-05-09T13:38:34.154Z,41.59
2024-05-09T13:41:11.757Z,40.56
2024-05-09T13:43:49.009Z,41.49
2024-05-09T13:46:27.086Z,42.89
2024-05-09T13:49:07.678Z,45.84
2024-05-09T13:51:45.837Z,44.65
2024-05-09T13:54:23.029Z,43.90
2024-05-09T13:57:03.474Z,42.03
2024-05-09T13:59:40.671Z,41.53
2024-05-09T14:02:18.190Z,42.44
2024-05-09T14:04:56.050Z,41.90
2024-05-09T14:07:33.460Z,42.65
2024-05-09T14:10:19.491Z,41.84
2024-05-09T14:13:01.273Z,40.55
2024-05-09T14:15:36.234Z,39.81
2024-05-09T14:18:14.572Z,39.86
2024-05-09T14:20:52.231Z,40.12
2024-05-09T14:23:29.548Z,40.81
2024-05-09T14:26:07.362Z,40.90
2024-05-09T14:28:44.570Z,40.97
2024-05-09T14:31:22.670Z,40.61
2024-05-09T14:34:00.101Z,42.02
2024-05-09T14:36:37.781Z,42.30
2024-05-09T14:39:15.346Z,41.96
2024-05-09T14:41:52.841Z,42.40
2024-05-09T14:44:30.142Z,43.86
2024-05-09T14:47:07.479Z,43.33
2024-05-09T14:49:44.831Z,44.09
2024-05-09T14:52:22.122Z,43.60
2024-05-09T14:55:00.526Z,43.02
2024-05-09T14:57:38.655Z,43.97
2024-05-09T15:00:24.831Z,44.51
2024-05-09T15:03:05.976Z,41.79
2024-05-09T15:05:43.491Z,41.20
2024-05-09T15:08:22.587Z,40.75
2024-05-09T15:10:59.958Z,42.15
2024-05-09T15:13:37.212Z,40.42
2024-05-09T15:16:14.597Z,39.89
2024-05-09T15:18:52.178Z,39.76
2024-05-09T15:21:29.634Z,39.80
2024-05-09T15:24:09.478Z,39.93
2024-05-09T15:26:46.774Z,40.08
2024-05-09T15:29:24.034Z,40.79
2024-05-09T15:32:01.308Z,41.78
2024-05-09T15:34:38.736Z,40.45
2024-05-09T15:37:16.145Z,40.54
2024-05-09T15:39:53.698Z,41.68
2024-05-09T15:42:31.203Z,42.24
2024-05-09T15:45:10.041Z,41.67
2024-05-09T15:47:48.377Z,41.51
2024-05-09T15:50:35.956Z,42.16
2024-05-09T15:53:17.575Z,41.42
2024-05-09T15:55:54.795Z,41.15
2024-05-09T15:58:32.511Z,41.78
2024-05-09T16:01:10.435Z,42.93
2024-05-09T16:03:48.029Z,43.93
2024-05-09T16:06:25.752Z,43.57
2024-05-09T16:09:03.112Z,42.52
2024-05-09T16:11:42.997Z,41.63
2024-05-09T16:14:20.773Z,41.18
2024-05-09T16:16:58.163Z,41.07
2024-05-09T16:19:35.522Z,40.36
2024-05-09T16:22:12.873Z,39.88
2024-05-09T16:24:50.758Z,39.54
2024-05-09T16:27:27.999Z,39.27
2024-05-09T16:30:09.479Z,39.47
2024-05-09T16:32:52.820Z,40.13
2024-05-09T16:35:30.173Z,41.25
2024-05-09T16:38:07.839Z,40.74
2024-05-09T16:40:45.566Z,40.76
2024-05-09T16:43:23.274Z,42.20
2024-05-09T16:46:00.748Z,41.46
2024-05-09T16:48:40.862Z,40.93
2024-05-09T16:51:18.238Z,41.00
2024-05-09T16:53:55.455Z,41.05
2024-05-09T16:56:32.715Z,41.23
2024-05-09T16:59:10.418Z,41.18
2024-05-09T17:01:47.740Z,41.62
2024-05-09T17:04:25.301Z,43.06
2024-05-09T17:07:02.850Z,43.84
2024-05-09T17:09:43.194Z,42.49
2024-05-09T17:12:20.470Z,42.27
2024-05-09T17:14:57.645Z,41.93
2024-05-09T17:17:34.998Z,41.95
2024-05-09T17:20:25.580Z,41.43
2024-05-09T17:23:13.741Z,41.49
2024-05-09T17:25:51.662Z,41.71
2024-05-09T17:28:29.266Z,41.49
2024-05-09T17:31:07.577Z,42.26
2024-05-09T17:33:45.151Z,42.97
2024-05-09T17:36:22.566Z,42.74
2024-05-09T17:38:59.812Z,43.15
2024-05-09T17:41:37.251Z,43.01
2024-05-09T17:44:15.383Z,42.67
2024-05-09T17:46:53.131Z,43.01
2024-05-09T17:49:30.460Z,43.97
2024-05-09T17:52:08.484Z,44.66
2024-05-09T17:54:45.815Z,44.59
2024-05-09T17:57:23.262Z,45.58
2024-05-09T18:00:00.511Z,45.65
2024-05-09T18:02:37.896Z,45.76
2024-05-09T18:05:15.340Z,46.02
2024-05-09T18:07:52.736Z,46.36
2024-05-09T18:10:35.986Z,46.78
2024-05-09T18:13:16.376Z,45.98
2024-05-09T18:15:53.644Z,46.94
2024-05-09T18:18:31.402Z,48.15
2024-05-09T18:21:08.913Z,48.45
2024-05-09T18:23:46.461Z,49.19
2024-05-09T18:26:24.135Z,49.40
2024-05-09T18:29:01.845Z,48.90
2024-05-09T18:31:39.143Z,49.32
2024-05-09T18:34:17.400Z,49.60
2024-05-09T18:36:54.931Z,49.75
2024-05-09T18:39:33.048Z,50.07
2024-05-09T18:42:11.140Z,50.07
2024-05-09T18:44:48.343Z,50.31
2024-05-09T18:47:26.832Z,50.30
2024-05-09T18:50:09.185Z,50.50
2024-05-09T18:52:51.933Z,50.81
2024-05-09T18:55:30.129Z,50.86
2024-05-09T18:58:07.989Z,51.06
2024-05-09T19:00:48.479Z,51.31
2024-05-09T19:03:28.841Z,51.62
2024-05-09T19:06:08.101Z,51.84
2024-05-09T19:08:45.701Z,52.09
2024-05-09T19:11:24.667Z,52.31
2024-05-09T19:14:04.466Z,52.56
2024-05-09T19:16:45.524Z,52.86
2024-05-09T19:19:22.864Z,53.22
2024-05-09T19:22:02.772Z,53.32
2024-05-09T19:24:41.051Z,53.45
2024-05-09T19:27:18.714Z,53.86
2024-05-09T19:29:58.031Z,53.88
2024-05-09T19:32:39.598Z,54.15
2024-05-09T19:35:18.024Z,54.35
2024-05-09T19:37:56.505Z,54.53
2024-05-09T19:40:38.422Z,54.90
2024-05-09T19:43:17.242Z,55.17
2024-05-09T19:45:55.676Z,55.51
2024-05-09T19:48:34.604Z,55.60
2024-05-09T19:51:12.416Z,55.83
2024-05-09T19:53:48.403Z,56.01
2024-05-09T19:56:27.091Z,56.15
2024-05-09T19:59:05.486Z,56.42
2024-05-09T20:01:45.229Z,56.58
2024-05-09T20:04:23.565Z,56.73
2024-05-09T20:07:04.574Z,56.92
2024-05-09T20:09:41.941Z,57.25
2024-05-09T20:12:19.387Z,57.60
2024-05-09T20:14:56.588Z,57.69
2024-05-09T20:17:34.957Z,57.70
2024-05-09T20:20:24.562Z,58.06
2024-05-09T20:23:12.471Z,58.35
2024-05-09T20:25:52.294Z,58.45
2024-05-09T20:28:29.725Z,58.58
2024-05-09T20:31:08.819Z,58.68
2024-05-09T20:33:46.999Z,58.75
2024-05-09T20:36:25.441Z,58.98
2024-05-09T20:39:02.614Z,58.99
2024-05-09T20:41:43.120Z,59.22
2024-05-09T20:44:22.338Z,59.39
2024-05-09T20:46:59.643Z,59.37
2024-05-09T20:49:37.838Z,59.75
2024-05-09T20:52:15.184Z,59.90
2024-05-09T20:54:52.498Z,60.31
2024-05-09T20:57:29.861Z,60.28
2024-05-09T21:00:14.839Z,60.51
2024-05-09T21:02:55.685Z,60.49
2024-05-09T21:05:33.239Z,60.55
2024-05-09T21:08:11.734Z,60.61
2024-05-09T21:10:49.081Z,60.66
2024-05-09T21:13:26.417Z,60.88
2024-05-09T21:16:03.765Z,60.75
2024-05-09T21:18:41.111Z,60.94
2024-05-09T21:21:18.490Z,60.55
2024-05-09T21:23:55.677Z,60.50
2024-05-09T21:26:33.474Z,60.58
2024-05-09T21:29:11.821Z,60.42
2024-05-09T21:31:49.199Z,60.44
2024-05-09T21:34:26.609Z,60.66
2024-05-09T21:37:03.983Z,60.86
2024-05-09T21:39:41.318Z,60.86
2024-05-09T21:42:18.509Z,61.16
2024-05-09T21:44:55.753Z,61.33
2024-05-09T21:47:33.222Z,61.68
2024-05-09T21:50:22.064Z,61.81
2024-05-09T21:53:00.737Z,62.17
2024-05-09T21:55:37.888Z,62.25
2024-05-09T21:58:16.091Z,62.42
2024-05-09T22:00:53.505Z,62.22
2024-05-09T22:03:30.919Z,62.51
2024-05-09T22:06:08.466Z,62.73
2024-05-09T22:08:45.794Z,62.85
2024-05-09T22:11:23.112Z,63.11
2024-05-09T22:14:00.414Z,63.23
2024-05-09T22:16:42.325Z,63.69
2024-05-09T22:19:19.869Z,63.86
2024-05-09T22:21:57.698Z,63.69
2024-05-09T22:24:35.670Z,63.64
2024-05-09T22:27:13.276Z,64.00
2024-05-09T22:29:50.591Z,63.92
2024-05-09T22:32:27.888Z,63.76
2024-05-09T22:35:07.806Z,63.93
2024-05-09T22:37:45.107Z,63.99
2024-05-09T22:40:32.136Z,64.14
2024-05-09T22:43:16.130Z,64.61
2024-05-09T22:45:54.334Z,64.82
2024-05-09T22:48:32.365Z,65.23
2024-05-09T22:51:10.112Z,65.20
2024-05-09T22:53:47.282Z,65.24
2024-05-09T22:56:31.725Z,64.93
2024-05-09T22:59:09.868Z,65.23
2024-05-09T23:01:47.271Z,65.24
2024-05-09T23:04:24.567Z,65.33
2024-05-09T23:07:01.747Z,65.36
2024-05-09T23:09:38.877Z,65.29
2024-05-09T23:12:17.676Z,65.45
2024-05-09T23:14:52.030Z,65.46
2024-05-09T23:17:29.191Z,65.53
2024-05-09T23:20:08.887Z,65.83
2024-05-09T23:22:48.744Z,65.95
2024-05-09T23:25:25.835Z,66.10
2024-05-09T23:28:03.551Z,66.08
2024-05-09T23:30:41.841Z,66.19
2024-05-09T23:33:16.934Z,66.11
2024-05-09T23:35:54.831Z,66.01
2024-05-09T23:38:31.843Z,66.35
2024-05-09T23:41:09.201Z,66.35
2024-05-09T23:43:46.525Z,66.50
2024-05-09T23:46:23.811Z,66.80
2024-05-09T23:49:01.283Z,66.87
2024-05-09T23:51:38.764Z,67.14
2024-05-09T23:54:17.565Z,67.10
2024-05-09T23:56:51.929Z,67.54
2024-05-09T23:59:29.073Z,67.60
